createdAt,value
2023-05-05T00:00:27.253Z,1.40
2023-05-05T00:02:54.831Z,1.08
2023-05-05T00:05:23.879Z,1.20
2023-05-05T00:07:51.455Z,1.20
2023-05-05T00:10:18.953Z,1.30
2023-05-05T00:12:46.642Z,1.33
2023-05-05T00:15:14.156Z,0.98
2023-05-05T00:17:41.925Z,1.42
2023-05-05T00:20:09.982Z,1.65
2023-05-05T00:22:37.602Z,1.52
2023-05-05T00:25:05.301Z,1.50
2023-05-05T00:27:32.814Z,1.30
2023-05-05T00:30:00.368Z,1.15
2023-05-05T00:32:27.915Z,1.23
2023-05-05T00:34:56.146Z,0.85
2023-05-05T00:37:23.678Z,0.90
2023-05-05T00:39:51.869Z,1.10
2023-05-05T00:42:19.356Z,1.00
2023-05-05T00:44:46.948Z,1.00
2023-05-05T00:47:14.893Z,0.80
2023-05-05T00:49:42.466Z,0.90
2023-05-05T00:52:10.341Z,1.10
2023-05-05T00:54:38.580Z,1.20
2023-05-05T00:57:06.098Z,1.05
2023-05-05T00:59:34.931Z,1.13
2023-05-05T01:02:02.591Z,1.30
2023-05-05T01:04:30.487Z,1.10
2023-05-05T01:07:09.019Z,0.98
2023-05-05T01:09:40.030Z,1.50
2023-05-05T01:12:26.290Z,1.27
2023-05-05T01:14:59.520Z,1.20
2023-05-05T01:17:30.695Z,1.02
2023-05-05T01:19:58.196Z,1.23
2023-05-05T01:22:27.798Z,1.13
2023-05-05T01:24:58.378Z,1.10
2023-05-05T01:27:34.786Z,1.27
2023-05-05T01:30:29.628Z,1.35
2023-05-05T01:33:01.486Z,1.80
2023-05-05T01:35:33.912Z,1.20
2023-05-05T01:38:06.850Z,1.20
2023-05-05T01:40:36.043Z,1.50
2023-05-05T01:43:04.740Z,1.50
2023-05-05T01:45:34.124Z,2.28
2023-05-05T01:48:02.756Z,1.75
2023-05-05T01:50:30.333Z,1.75
2023-05-05T01:52:58.321Z,1.83
2023-05-05T01:55:26.644Z,1.98
2023-05-05T01:57:54.940Z,1.58
2023-05-05T02:00:24.955Z,1.95
2023-05-05T02:02:54.249Z,2.10
2023-05-05T02:05:22.852Z,2.08
2023-05-05T02:07:51.169Z,1.85
2023-05-05T02:10:19.069Z,1.80
2023-05-05T02:12:47.633Z,1.83
2023-05-05T02:15:16.407Z,1.60
2023-05-05T02:17:44.328Z,1.63
2023-05-05T02:20:13.318Z,1.83
2023-05-05T02:22:41.077Z,1.63
2023-05-05T02:25:09.484Z,1.60
2023-05-05T02:27:38.070Z,1.48
2023-05-05T02:30:08.702Z,1.70
2023-05-05T02:32:40.334Z,2.05
2023-05-05T02:35:16.386Z,1.35
2023-05-05T02:37:51.414Z,1.75
2023-05-05T02:40:23.030Z,1.77
2023-05-05T02:42:54.156Z,1.48
2023-05-05T02:45:26.137Z,1.42
2023-05-05T02:47:54.015Z,2.28
2023-05-05T02:50:22.222Z,1.63
2023-05-05T02:52:59.127Z,2.03
2023-05-05T02:55:28.646Z,1.85
2023-05-05T02:58:06.828Z,1.83
2023-05-05T03:00:42.017Z,1.55
2023-05-05T03:03:14.169Z,1.70
2023-05-05T03:05:45.893Z,1.67
2023-05-05T03:08:37.578Z,1.70
2023-05-05T03:11:07.108Z,2.28
2023-05-05T03:13:42.747Z,2.00
2023-05-05T03:16:13.761Z,2.20
2023-05-05T03:18:43.083Z,2.10
2023-05-05T03:21:10.721Z,2.03
2023-05-05T03:23:41.279Z,1.85
2023-05-05T03:26:19.884Z,2.55
2023-05-05T03:28:47.907Z,2.88
2023-05-05T03:31:21.058Z,2.70
2023-05-05T03:33:53.787Z,3.17
2023-05-05T03:36:24.836Z,3.55
2023-05-05T03:38:53.623Z,3.80
2023-05-05T03:41:23.554Z,4.35
2023-05-05T03:43:52.189Z,4.70
2023-05-05T03:46:20.280Z,4.15
2023-05-05T03:48:48.592Z,3.50
2023-05-05T03:51:16.330Z,3.25
2023-05-05T03:53:44.031Z,3.42
2023-05-05T03:56:11.870Z,2.80
2023-05-05T03:58:39.414Z,2.90
2023-05-05T04:01:08.242Z,3.15
2023-05-05T04:03:35.768Z,2.75
2023-05-05T04:06:03.417Z,2.95
2023-05-05T04:08:32.673Z,3.25
2023-05-05T04:11:02.438Z,3.00
2023-05-05T04:13:31.044Z,3.53
2023-05-05T04:15:59.770Z,3.22
2023-05-05T04:18:27.491Z,3.00
2023-05-05T04:20:55.655Z,3.15
2023-05-05T04:23:23.718Z,2.90
2023-05-05T04:25:51.666Z,2.88
2023-05-05T04:28:21.630Z,3.80
2023-05-05T04:30:50.303Z,2.92
2023-05-05T04:33:17.950Z,2.95
2023-05-05T04:35:47.702Z,3.20
2023-05-05T04:38:16.141Z,3.42
2023-05-05T04:40:44.385Z,3.03
2023-05-05T04:43:16.597Z,4.03
2023-05-05T04:45:52.654Z,3.25
2023-05-05T04:48:21.335Z,3.17
2023-05-05T04:50:48.799Z,2.50
2023-05-05T04:53:16.252Z,3.15
2023-05-05T04:55:45.176Z,3.22
2023-05-05T04:58:12.748Z,2.72
2023-05-05T05:00:40.225Z,2.80
2023-05-05T05:03:08.127Z,2.65
2023-05-05T05:05:35.605Z,3.25
2023-05-05T05:08:03.046Z,2.97
2023-05-05T05:10:30.753Z,2.85
2023-05-05T05:12:58.436Z,2.50
2023-05-05T05:15:25.949Z,2.35
2023-05-05T05:17:53.691Z,2.85
2023-05-05T05:20:21.404Z,3.10
2023-05-05T05:22:49.150Z,3.22
2023-05-05T05:25:23.319Z,3.53
2023-05-05T05:28:02.282Z,3.05
2023-05-05T05:30:37.919Z,2.75
2023-05-05T05:33:07.646Z,2.83
2023-05-05T05:35:35.326Z,3.20
2023-05-05T05:38:02.881Z,3.10
2023-05-05T05:40:31.541Z,3.00
2023-05-05T05:42:59.625Z,2.88
2023-05-05T05:45:27.860Z,2.78
2023-05-05T05:47:55.698Z,3.10
2023-05-05T05:50:24.894Z,2.50
2023-05-05T05:52:52.601Z,2.72
2023-05-05T05:55:20.224Z,2.40
2023-05-05T05:57:47.956Z,3.03
2023-05-05T06:00:16.207Z,3.10
2023-05-05T06:02:51.500Z,2.85
2023-05-05T06:05:26.211Z,2.75
2023-05-05T06:07:54.162Z,3.00
2023-05-05T06:10:27.924Z,3.13
2023-05-05T06:13:02.411Z,2.20
2023-05-05T06:15:31.808Z,3.10
2023-05-05T06:18:01.265Z,2.75
2023-05-05T06:20:28.871Z,2.58
2023-05-05T06:22:56.681Z,2.67
2023-05-05T06:25:24.853Z,2.35
2023-05-05T06:27:53.020Z,2.63
2023-05-05T06:30:20.713Z,2.90
2023-05-05T06:32:48.328Z,2.60
2023-05-05T06:35:15.821Z,2.15
2023-05-05T06:37:44.192Z,2.53
2023-05-05T06:40:11.842Z,2.70
2023-05-05T06:42:39.313Z,2.80
2023-05-05T06:45:09.874Z,2.40
2023-05-05T06:47:37.426Z,3.67
2023-05-05T06:50:05.143Z,3.03
2023-05-05T06:52:32.902Z,2.60
2023-05-05T06:55:00.717Z,2.78
2023-05-05T07:01:32.258Z,2.85
2023-05-05T07:04:03.125Z,3.10
2023-05-05T07:06:31.777Z,3.45
2023-05-05T07:08:59.223Z,2.85
2023-05-05T07:11:26.728Z,3.88
2023-05-05T07:13:54.248Z,3.70
2023-05-05T07:16:21.868Z,3.35
2023-05-05T07:18:49.487Z,3.80
2023-05-05T07:21:16.962Z,3.55
2023-05-05T07:23:46.155Z,3.53
2023-05-05T07:26:13.915Z,3.63
2023-05-05T07:28:42.984Z,3.05
2023-05-05T07:31:10.746Z,2.72
2023-05-05T07:33:38.235Z,2.92
2023-05-05T07:36:06.067Z,3.17
2023-05-05T07:38:33.594Z,2.42
2023-05-05T07:41:01.255Z,2.42
2023-05-05T07:43:28.871Z,3.03
2023-05-05T07:45:56.349Z,2.38
2023-05-05T07:48:23.814Z,3.15
2023-05-05T07:50:52.470Z,2.78
2023-05-05T07:53:20.201Z,2.33
2023-05-05T07:55:48.980Z,2.50
2023-05-05T07:58:16.736Z,2.53
2023-05-05T08:00:44.433Z,2.50
2023-05-05T08:03:12.443Z,2.10
2023-05-05T08:05:40.479Z,2.17
2023-05-05T08:08:08.258Z,2.70
2023-05-05T08:10:35.697Z,1.75
2023-05-05T08:13:03.228Z,1.77
2023-05-05T08:15:30.740Z,1.88
2023-05-05T08:17:58.201Z,1.80
2023-05-05T08:20:29.686Z,1.80
2023-05-05T08:22:57.150Z,1.50
2023-05-05T08:25:26.813Z,1.50
2023-05-05T08:27:54.500Z,1.42
2023-05-05T08:30:22.323Z,2.03
2023-05-05T08:32:49.879Z,1.60
2023-05-05T08:35:18.015Z,1.60
2023-05-05T08:37:46.365Z,1.30
2023-05-05T08:40:14.710Z,1.65
2023-05-05T08:42:42.302Z,1.92
2023-05-05T08:45:10.897Z,1.52
2023-05-05T08:47:39.224Z,1.67
2023-05-05T08:50:07.188Z,1.40
2023-05-05T08:52:45.874Z,1.58
2023-05-05T08:55:15.362Z,1.90
2023-05-05T08:57:53.349Z,1.83
2023-05-05T09:00:21.111Z,1.25
2023-05-05T09:02:49.064Z,1.30
2023-05-05T09:05:16.804Z,1.42
2023-05-05T09:07:44.665Z,1.38
2023-05-05T09:10:12.736Z,1.63
2023-05-05T09:12:41.141Z,1.40
2023-05-05T09:15:12.467Z,1.10
2023-05-05T09:17:40.383Z,1.48
2023-05-05T09:20:08.956Z,1.10
2023-05-05T09:22:40.828Z,1.40
2023-05-05T09:25:10.104Z,1.42
2023-05-05T09:27:38.491Z,1.20
2023-05-05T09:30:06.699Z,1.20
2023-05-05T09:32:44.478Z,1.40
2023-05-05T09:35:11.977Z,1.20
2023-05-05T09:37:39.630Z,0.98
2023-05-05T09:40:09.122Z,1.15
2023-05-05T09:42:37.825Z,1.30
2023-05-05T09:45:20.695Z,1.23
2023-05-05T09:47:48.651Z,1.25
2023-05-05T09:50:18.511Z,1.17
2023-05-05T09:52:56.011Z,1.20
2023-05-05T09:55:24.297Z,1.10
2023-05-05T09:57:52.221Z,1.10
2023-05-05T10:00:19.993Z,1.20
2023-05-05T10:02:47.637Z,1.15
2023-05-05T10:05:16.645Z,1.13
2023-05-05T10:07:45.385Z,1.33
2023-05-05T10:10:13.818Z,1.10
2023-05-05T10:12:42.050Z,1.38
2023-05-05T10:15:10.287Z,1.52
2023-05-05T10:17:39.193Z,1.08
2023-05-05T10:20:08.362Z,1.10
2023-05-05T10:22:36.176Z,1.35
2023-05-05T10:25:06.025Z,1.08
2023-05-05T10:27:35.394Z,1.23
2023-05-05T10:30:07.244Z,1.08
2023-05-05T10:35:22.937Z,1.23
2023-05-05T10:37:50.912Z,1.35
2023-05-05T10:40:18.376Z,1.15
2023-05-05T10:42:46.275Z,1.27
2023-05-05T10:45:13.870Z,1.33
2023-05-05T10:47:41.587Z,1.50
2023-05-05T10:50:27.872Z,1.60
2023-05-05T10:53:13.660Z,1.70
2023-05-05T10:55:53.094Z,1.55
2023-05-05T10:58:47.030Z,1.40
2023-05-05T11:01:33.866Z,1.02
2023-05-05T11:04:20.838Z,1.05
2023-05-05T11:07:06.742Z,1.05
2023-05-05T11:09:38.566Z,1.52
2023-05-05T11:12:06.613Z,1.15
2023-05-05T11:14:34.559Z,1.20
2023-05-05T11:17:02.220Z,1.40
2023-05-05T11:19:45.756Z,1.10
2023-05-05T11:22:13.366Z,1.17
2023-05-05T11:24:42.177Z,1.30
2023-05-05T11:27:10.702Z,1.08
2023-05-05T11:29:56.880Z,1.20
2023-05-05T11:32:24.928Z,1.10
2023-05-05T11:34:52.522Z,1.63
2023-05-05T11:37:23.084Z,1.20
2023-05-05T11:39:56.320Z,1.35
2023-05-05T11:42:25.179Z,1.77
2023-05-05T11:44:52.915Z,1.30
2023-05-05T11:47:20.468Z,1.10
2023-05-05T11:49:48.076Z,1.27
2023-05-05T11:52:15.795Z,1.05
2023-05-05T11:54:50.719Z,1.60
2023-05-05T11:57:21.649Z,1.40
2023-05-05T11:59:51.190Z,1.20
2023-05-05T12:02:19.508Z,1.42
2023-05-05T12:04:47.315Z,1.50
2023-05-05T12:07:15.972Z,1.20
2023-05-05T12:09:47.231Z,1.02
2023-05-05T12:12:15.557Z,1.27
2023-05-05T12:14:53.044Z,1.15
2023-05-05T12:17:21.408Z,1.00
2023-05-05T12:19:55.280Z,1.30
2023-05-05T12:22:26.547Z,1.30
2023-05-05T12:24:58.170Z,1.33
2023-05-05T12:27:26.665Z,1.20
2023-05-05T12:29:57.786Z,1.05
2023-05-05T12:32:26.495Z,1.20
2023-05-05T12:34:57.148Z,1.35
2023-05-05T12:37:25.866Z,1.13
2023-05-05T12:39:56.926Z,1.00
2023-05-05T12:42:24.592Z,1.30
2023-05-05T12:44:52.220Z,1.40
2023-05-05T12:47:33.346Z,1.45
2023-05-05T12:50:03.029Z,1.30
2023-05-05T12:52:43.808Z,1.15
2023-05-05T12:55:11.789Z,1.23
2023-05-05T12:57:39.719Z,1.20
2023-05-05T13:00:14.897Z,1.40
2023-05-05T13:02:42.495Z,1.30
2023-05-05T13:05:10.169Z,1.20
2023-05-05T13:07:49.937Z,1.30
2023-05-05T13:10:17.680Z,1.73
2023-05-05T13:12:45.329Z,1.23
2023-05-05T13:15:13.080Z,1.50
2023-05-05T13:17:40.566Z,1.00
2023-05-05T13:20:10.800Z,1.00
2023-05-05T13:22:38.415Z,1.23
2023-05-05T13:25:06.515Z,1.27
2023-05-05T13:27:34.576Z,1.50
2023-05-05T13:30:02.140Z,1.33
2023-05-05T13:32:29.725Z,1.70
2023-05-05T13:34:57.890Z,1.38
2023-05-05T13:37:25.566Z,1.25
2023-05-05T13:39:55.227Z,1.30
2023-05-05T13:42:22.728Z,1.92
2023-05-05T13:44:50.241Z,2.00
2023-05-05T13:47:17.842Z,1.98
2023-05-05T13:49:45.963Z,3.13
2023-05-05T13:52:13.506Z,2.47
2023-05-05T13:54:41.927Z,1.63
2023-05-05T13:57:11.016Z,1.85
2023-05-05T13:59:38.509Z,2.30
2023-05-05T14:02:06.215Z,2.17
2023-05-05T14:04:33.945Z,2.63
2023-05-05T14:07:01.519Z,2.80
2023-05-05T14:09:29.605Z,1.70
2023-05-05T14:11:57.554Z,2.15
2023-05-05T14:14:25.136Z,1.88
2023-05-05T14:16:52.892Z,1.90
2023-05-05T14:19:20.522Z,1.80
2023-05-05T14:21:48.010Z,2.30
2023-05-05T14:24:15.666Z,1.92
2023-05-05T14:26:46.447Z,2.40
2023-05-05T14:29:14.055Z,2.20
2023-05-05T14:31:41.609Z,2.20
2023-05-05T14:34:09.296Z,2.25
2023-05-05T14:36:36.830Z,1.92
2023-05-05T14:39:04.354Z,1.98
2023-05-05T14:41:32.153Z,1.80
2023-05-05T14:43:59.729Z,1.90
2023-05-05T14:46:27.447Z,1.50
2023-05-05T14:48:55.148Z,1.92
2023-05-05T14:51:22.789Z,2.10
2023-05-05T14:53:50.295Z,2.30
2023-05-05T14:56:18.075Z,2.35
2023-05-05T14:58:46.867Z,2.33
2023-05-05T15:01:15.311Z,2.60
2023-05-05T15:03:42.999Z,2.35
2023-05-05T15:06:10.777Z,2.30
2023-05-05T15:08:39.199Z,2.28
2023-05-05T15:11:06.919Z,2.38
2023-05-05T15:13:35.387Z,1.88
2023-05-05T15:16:03.012Z,1.90
2023-05-05T15:18:30.535Z,2.00
2023-05-05T15:20:58.423Z,2.35
2023-05-05T15:23:26.031Z,1.98
2023-05-05T15:25:53.600Z,2.75
2023-05-05T15:28:21.092Z,2.33
2023-05-05T15:30:48.547Z,4.28
2023-05-05T15:33:16.089Z,2.85
2023-05-05T15:35:43.648Z,2.83
2023-05-05T15:38:11.257Z,2.30
2023-05-05T15:40:38.781Z,2.42
2023-05-05T15:43:06.809Z,2.83
2023-05-05T15:45:34.445Z,2.67
2023-05-05T15:48:02.019Z,2.17
2023-05-05T15:50:29.651Z,1.92
2023-05-05T15:52:57.266Z,2.63
2023-05-05T15:55:25.069Z,2.63
2023-05-05T15:57:52.938Z,2.45
2023-05-05T16:00:20.815Z,2.10
2023-05-05T16:02:48.396Z,2.55
2023-05-05T16:05:16.003Z,2.00
2023-05-05T16:07:43.543Z,2.08
2023-05-05T16:10:11.298Z,2.38
2023-05-05T16:12:38.797Z,2.78
2023-05-05T16:15:06.968Z,2.70
2023-05-05T16:17:34.649Z,1.88
2023-05-05T16:20:02.263Z,2.88
2023-05-05T16:22:29.757Z,2.47
2023-05-05T16:24:57.534Z,2.63
2023-05-05T16:27:25.037Z,2.42
2023-05-05T16:29:53.250Z,2.30
2023-05-05T16:32:20.841Z,2.17
2023-05-05T16:34:48.432Z,1.88
2023-05-05T16:37:16.060Z,1.80
2023-05-05T16:39:43.578Z,1.63
2023-05-05T16:42:11.249Z,1.95
2023-05-05T16:44:38.851Z,1.83
2023-05-05T16:47:06.380Z,1.80
2023-05-05T16:49:33.938Z,1.13
2023-05-05T16:52:01.433Z,1.27
2023-05-05T16:54:29.046Z,2.10
2023-05-05T16:56:56.898Z,1.38
2023-05-05T16:59:24.387Z,1.55
2023-05-05T17:01:52.353Z,1.50
2023-05-05T17:04:19.819Z,1.58
2023-05-05T17:06:47.378Z,1.65
2023-05-05T17:09:17.125Z,1.50
2023-05-05T17:11:44.600Z,1.48
2023-05-05T17:14:12.058Z,1.48
2023-05-05T17:16:39.630Z,1.58
2023-05-05T17:19:07.218Z,1.40
2023-05-05T17:21:34.748Z,1.35
2023-05-05T17:24:02.160Z,1.30
2023-05-05T17:26:31.843Z,1.50
2023-05-05T17:28:59.390Z,1.42
2023-05-05T17:31:27.190Z,1.33
2023-05-05T17:33:54.731Z,1.45
2023-05-05T17:36:23.600Z,1.40
2023-05-05T17:38:51.020Z,1.10
2023-05-05T17:44:00.153Z,1.35
2023-05-05T17:46:27.922Z,1.70
2023-05-05T17:48:56.174Z,1.60
2023-05-05T17:51:23.841Z,1.65
2023-05-05T17:53:51.512Z,1.58
2023-05-05T17:56:20.496Z,1.50
2023-05-05T17:58:48.746Z,1.33
2023-05-05T18:01:26.697Z,1.23
2023-05-05T18:03:54.458Z,1.45
2023-05-05T18:06:22.129Z,1.65
2023-05-05T18:08:49.875Z,1.50
2023-05-05T18:11:17.443Z,1.70
2023-05-05T18:13:48.256Z,1.50
2023-05-05T18:18:45.841Z,1.75
2023-05-05T18:21:40.231Z,1.55
2023-05-05T18:24:19.397Z,2.15
2023-05-05T18:26:49.429Z,1.70
2023-05-05T18:29:39.726Z,1.60
2023-05-05T18:32:47.094Z,1.80
2023-05-05T18:35:14.741Z,1.80
2023-05-05T18:37:42.308Z,1.70
2023-05-05T18:40:10.493Z,1.77
2023-05-05T18:42:38.128Z,2.22
2023-05-05T18:45:08.832Z,1.88
2023-05-05T18:47:37.630Z,1.98
2023-05-05T18:50:05.466Z,2.17
2023-05-05T18:52:33.485Z,2.70
2023-05-05T18:55:02.582Z,2.95
2023-05-05T18:57:30.088Z,2.95
2023-05-05T19:03:08.550Z,2.42
2023-05-05T19:05:46.503Z,1.88
2023-05-05T19:08:14.038Z,1.90
2023-05-05T19:10:41.756Z,1.77
2023-05-05T19:13:10.840Z,2.28
2023-05-05T19:15:41.323Z,1.95
2023-05-05T19:18:08.876Z,2.22
2023-05-05T19:20:38.407Z,1.88
2023-05-05T19:23:06.987Z,2.72
2023-05-05T19:25:34.520Z,2.70
2023-05-05T19:28:01.942Z,2.33
2023-05-05T19:30:29.435Z,2.38
2023-05-05T19:32:57.122Z,2.65
2023-05-05T19:35:24.678Z,3.00
2023-05-05T19:37:52.220Z,3.05
2023-05-05T19:40:19.729Z,4.07
2023-05-05T19:42:47.215Z,2.60
2023-05-05T19:45:14.745Z,2.63
2023-05-05T19:47:42.654Z,2.35
2023-05-05T19:50:10.741Z,2.88
2023-05-05T19:52:41.190Z,2.60
2023-05-05T19:55:10.362Z,2.38
2023-05-05T19:57:37.912Z,2.50
2023-05-05T20:00:05.804Z,2.33
2023-05-05T20:02:36.752Z,2.42
2023-05-05T20:05:04.789Z,3.00
2023-05-05T20:07:32.233Z,4.30
2023-05-05T20:10:00.594Z,2.85
2023-05-05T20:12:28.087Z,3.22
2023-05-05T20:14:55.647Z,2.83
2023-05-05T20:17:23.705Z,2.50
2023-05-05T20:19:51.200Z,2.80
2023-05-05T20:22:18.764Z,2.70
2023-05-05T20:24:46.262Z,3.58
2023-05-05T20:27:13.777Z,3.00
2023-05-05T20:29:41.477Z,2.88
2023-05-05T20:32:09.012Z,2.85
2023-05-05T20:34:36.529Z,3.05
2023-05-05T20:37:03.964Z,2.53
2023-05-05T20:39:31.485Z,3.45
2023-05-05T20:41:59.015Z,2.95
2023-05-05T20:44:26.630Z,3.40
2023-05-05T20:46:54.251Z,2.83
2023-05-05T20:49:21.851Z,2.67
2023-05-05T20:51:49.428Z,2.90
2023-05-05T20:54:16.878Z,2.83
2023-05-05T20:56:44.340Z,3.00
2023-05-05T20:59:11.796Z,2.75
2023-05-05T21:01:39.557Z,3.00
2023-05-05T21:04:07.055Z,3.42
2023-05-05T21:06:34.566Z,3.10
2023-05-05T21:09:02.005Z,4.03
2023-05-05T21:11:29.555Z,3.30
2023-05-05T21:13:57.005Z,4.35
2023-05-05T21:16:24.529Z,4.53
2023-05-05T21:18:52.035Z,5.68
2023-05-05T21:21:19.578Z,3.38
2023-05-05T21:23:47.899Z,2.65
2023-05-05T21:26:15.565Z,2.53
2023-05-05T21:28:43.036Z,2.55
2023-05-05T21:31:21.622Z,2.50
2023-05-05T21:33:50.099Z,1.95
2023-05-05T21:36:19.090Z,2.50
2023-05-05T21:38:46.863Z,2.97
2023-05-05T21:41:14.739Z,3.10
2023-05-05T21:43:42.424Z,3.10
2023-05-05T21:46:10.012Z,3.47
2023-05-05T21:48:38.900Z,3.10
2023-05-05T21:51:06.791Z,3.97
2023-05-05T21:53:34.811Z,2.70
2023-05-05T21:56:02.304Z,3.15
2023-05-05T21:58:29.792Z,3.10
2023-05-05T22:00:57.419Z,2.95
2023-05-05T22:03:25.912Z,2.92
2023-05-05T22:05:53.611Z,2.75
2023-05-05T22:08:21.129Z,2.95
2023-05-05T22:10:48.572Z,3.03
2023-05-05T22:13:16.156Z,2.95
2023-05-05T22:15:47.212Z,2.55
2023-05-05T22:18:15.684Z,2.40
2023-05-05T22:20:43.894Z,2.58
2023-05-05T22:23:11.631Z,2.55
2023-05-05T22:25:39.034Z,2.70
2023-05-05T22:28:08.777Z,3.00
2023-05-05T22:30:36.415Z,2.47
2023-05-05T22:33:04.371Z,3.00
2023-05-05T22:35:40.774Z,3.08
2023-05-05T22:38:11.277Z,2.72
2023-05-05T22:40:38.813Z,2.95
2023-05-05T22:43:10.135Z,3.22
2023-05-05T22:45:40.938Z,2.53
2023-05-05T22:48:08.938Z,3.30
2023-05-05T22:50:36.654Z,2.80
2023-05-05T22:53:04.293Z,2.65
2023-05-05T22:55:33.002Z,2.67
2023-05-05T22:58:00.500Z,3.20
2023-05-05T23:00:28.195Z,2.65
2023-05-05T23:02:55.977Z,2.72
2023-05-05T23:05:23.551Z,2.33
2023-05-05T23:07:51.425Z,2.70
2023-05-05T23:10:18.997Z,2.75
2023-05-05T23:12:51.853Z,2.20
2023-05-05T23:15:19.382Z,2.88
2023-05-05T23:17:46.844Z,2.25
2023-05-05T23:20:15.077Z,2.40
2023-05-05T23:22:42.497Z,2.78
2023-05-05T23:25:10.318Z,2.65
2023-05-05T23:27:39.975Z,2.40
2023-05-05T23:30:08.599Z,2.80
2023-05-05T23:32:36.115Z,2.80
2023-05-05T23:35:03.685Z,2.28
2023-05-05T23:37:31.138Z,2.80
2023-05-05T23:39:58.648Z,2.63
2023-05-05T23:42:26.099Z,2.80
2023-05-05T23:44:53.583Z,2.72
2023-05-05T23:47:21.008Z,2.28
2023-05-05T23:49:48.630Z,2.45
2023-05-05T23:52:16.432Z,2.83
2023-05-05T23:54:44.908Z,2.60
2023-05-05T23:57:12.333Z,2.65
2023-05-05T23:59:39.998Z,2.38
